Time;durP1;ratioP1;P1;durP2;ratioP2;P2;SDS_P1;SDS_P2;PMS_P1;PMS_P2;Temp;Humidity;BMP_temperature;BMP_pressure;BME280_temperature;BME280_humidity;BME280_pressure;Samples;Min_cycle;Max_cycle;Signal;HPM_P1;HPM_P2
2023/06/27 00:02:03;;;;;;;11.73;4.47;;;;;;;21.61;100.00;94503.84;5093675;28;20031;-83
2023/06/27 00:04:28;;;;;;;6.63;4.50;;;;;;;21.44;100.00;94509.41;5093866;28;20039;-83
2023/06/27 00:06:54;;;;;;;6.45;4.30;;;;;;;21.23;100.00;94504.97;5092341;28;20035;-83
2023/06/27 00:09:19;;;;;;;6.40;4.50;;;;;;;21.31;100.00;94497.97;5076394;28;20069;-83
2023/06/27 00:11:45;;;;;;;7.80;4.93;;;;;;;21.47;100.00;94496.19;5092537;28;20024;-83
2023/06/27 00:14:13;;;;;;;5.63;4.18;;;;;;;21.58;100.00;94490.41;5092787;28;20035;-83
2023/06/27 00:16:39;;;;;;;7.90;4.60;;;;;;;21.60;100.00;94494.28;5093470;28;20028;-84
2023/06/27 00:19:05;;;;;;;7.13;4.05;;;;;;;21.63;100.00;94487.53;5092466;28;20457;-83
2023/06/27 00:21:31;;;;;;;6.30;4.40;;;;;;;21.61;100.00;94490.50;5092759;28;20036;-84
2023/06/27 00:23:57;;;;;;;7.13;4.60;;;;;;;21.72;100.00;94490.84;5092537;28;20152;-83
2023/06/27 00:26:23;;;;;;;10.30;4.03;;;;;;;21.77;100.00;94497.09;5092582;28;20465;-83
2023/06/27 00:28:48;;;;;;;5.53;3.80;;;;;;;21.75;100.00;94490.22;5092052;28;20534;-83
2023/06/27 00:31:14;;;;;;;10.48;4.40;;;;;;;21.79;100.00;94486.88;5092413;28;20039;-83
2023/06/27 00:33:39;;;;;;;10.43;4.43;;;;;;;21.56;100.00;94492.63;5075786;28;20032;-84
2023/06/27 00:36:05;;;;;;;6.65;4.25;;;;;;;21.60;100.00;94493.53;5092471;28;20036;-83
2023/06/27 00:38:31;;;;;;;7.70;4.30;;;;;;;21.75;100.00;94497.41;5092550;28;20035;-83
2023/06/27 00:40:57;;;;;;;7.60;4.25;;;;;;;21.87;100.00;94478.72;5092316;28;20077;-83
2023/06/27 00:43:23;;;;;;;5.28;3.58;;;;;;;21.93;100.00;94478.50;5092337;28;20512;-83
2023/06/27 00:45:52;;;;;;;6.57;4.25;;;;;;;21.95;100.00;94487.72;5092425;28;20035;-83
2023/06/27 00:48:18;;;;;;;6.22;4.10;;;;;;;21.44;100.00;94486.19;5091832;28;20343;-83
2023/06/27 00:50:45;;;;;;;6.50;4.18;;;;;;;21.30;100.00;94478.53;5092160;28;20395;-83
2023/06/27 00:53:11;;;;;;;6.90;4.15;;;;;;;21.24;100.00;94477.22;5092206;28;20181;-83
2023/06/27 00:55:37;;;;;;;7.35;4.57;;;;;;;21.11;100.00;94480.97;5075734;28;20032;-83
2023/06/27 00:58:03;;;;;;;6.95;4.57;;;;;;;20.86;100.00;94467.63;5088676;28;20027;-83
2023/06/27 01:00:30;;;;;;;6.93;4.20;;;;;;;20.79;100.00;94468.13;5080278;28;20296;-83
2023/06/27 01:02:55;;;;;;;7.60;4.50;;;;;;;20.59;100.00;94469.75;5071901;28;20032;-83
2023/06/27 01:05:21;;;;;;;5.97;4.40;;;;;;;20.49;100.00;94458.41;5071868;28;20448;-82
2023/06/27 01:08:03;;;;;;;6.47;4.40;;;;;;;20.30;100.00;94461.56;5071744;28;20040;-83
2023/06/27 01:10:53;;;;;;;8.18;4.30;;;;;;;20.24;100.00;94457.53;5074746;28;20449;-83
2023/06/27 01:13:23;;;;;;;7.75;4.00;;;;;;;20.38;100.00;94456.47;5060614;28;20036;-83
2023/06/27 01:15:54;;;;;;;5.65;3.75;;;;;;;20.39;100.00;94458.84;5086135;28;20115;-83
2023/06/27 01:18:21;;;;;;;5.95;3.72;;;;;;;20.32;100.00;94455.91;5062536;28;20025;-83
2023/06/27 01:20:47;;;;;;;6.55;4.43;;;;;;;20.41;100.00;94453.16;5065888;28;20036;-83
2023/06/27 01:23:22;;;;;;;6.10;3.95;;;;;;;20.49;100.00;94458.41;5086658;28;20035;-83
2023/06/27 01:25:50;;;;;;;8.27;4.15;;;;;;;20.31;100.00;94451.69;5091573;28;20436;-83
2023/06/27 01:28:16;;;;;;;7.60;4.60;;;;;;;20.18;100.00;94445.56;5077497;28;20027;-83
2023/06/27 01:30:42;;;;;;;5.82;3.95;;;;;;;20.21;100.00;94442.25;5076535;28;20366;-83
2023/06/27 01:33:16;;;;;;;7.07;4.80;;;;;;;20.38;100.00;94449.28;5059827;28;20032;-83
2023/06/27 01:36:02;;;;;;;5.07;3.80;;;;;;;20.46;100.00;94445.75;5059649;28;20408;-83
2023/06/27 01:38:34;;;;;;;6.68;3.92;;;;;;;20.43;100.00;94441.09;5059513;28;20032;-83
2023/06/27 01:41:00;;;;;;;5.57;3.80;;;;;;;20.43;100.00;94432.31;5075778;28;20491;-84
2023/06/27 01:43:26;;;;;;;6.47;4.15;;;;;;;20.29;100.00;94429.97;5075445;28;20036;-83
2023/06/27 01:45:55;;;;;;;8.50;4.15;;;;;;;20.16;100.00;94423.84;5075930;28;20426;-83
2023/06/27 01:48:21;;;;;;;8.18;4.03;;;;;;;20.00;100.00;94424.41;5075821;28;20036;-83
2023/06/27 01:50:46;;;;;;;6.20;3.88;;;;;;;19.97;100.00;94419.75;5076050;28;20043;-83
2023/06/27 01:53:12;;;;;;;9.38;4.63;;;;;;;19.81;100.00;94416.91;5076188;28;20028;-83
2023/06/27 01:55:37;;;;;;;6.80;4.15;;;;;;;19.82;100.00;94413.13;5076148;28;20033;-83
2023/06/27 01:58:03;;;;;;;6.70;4.35;;;;;;;19.83;100.00;94409.38;5058906;28;20043;-83
2023/06/27 02:00:28;;;;;;;7.32;3.95;;;;;;;20.02;100.00;94408.94;5077233;28;20050;-83
2023/06/27 02:02:54;;;;;;;5.95;3.83;;;;;;;19.82;100.00;94413.13;5059701;28;20755;-83
2023/06/27 02:05:19;;;;;;;7.32;4.13;;;;;;;19.80;100.00;94412.69;5059459;28;20036;-83
2023/06/27 02:07:45;;;;;;;6.28;3.72;;;;;;;19.94;100.00;94411.63;5076895;28;20082;-83
2023/06/27 02:10:10;;;;;;;5.97;4.18;;;;;;;19.99;100.00;94409.56;5075813;28;20337;-83
2023/06/27 02:12:36;;;;;;;8.20;4.55;;;;;;;20.05;100.00;94405.63;5076984;28;20024;-83
2023/06/27 02:15:01;;;;;;;11.18;4.07;;;;;;;20.12;100.00;94405.09;5076022;28;20468;-83
2023/06/27 02:17:27;;;;;;;6.25;4.25;;;;;;;20.14;100.00;94404.75;5075322;28;20078;-83
2023/06/27 02:19:52;;;;;;;7.88;4.50;;;;;;;20.22;100.00;94403.09;5076759;28;20074;-83
2023/06/27 02:22:18;;;;;;;7.88;4.60;;;;;;;20.17;100.00;94402.22;5075845;28;20040;-83
2023/06/27 02:24:43;;;;;;;6.00;3.90;;;;;;;20.04;100.00;94401.41;5075568;28;20037;-83
2023/06/27 02:27:08;;;;;;;5.78;4.10;;;;;;;20.08;100.00;94401.50;5058797;28;20090;-83
2023/06/27 02:29:34;;;;;;;6.78;3.60;;;;;;;20.10;100.00;94404.63;5075373;28;20433;-83
2023/06/27 02:31:59;;;;;;;5.50;4.07;;;;;;;20.08;100.00;94406.06;5075243;28;20028;-83
2023/06/27 02:34:25;;;;;;;6.72;4.28;;;;;;;20.11;100.00;94405.41;5075311;28;20360;-83
2023/06/27 02:36:50;;;;;;;7.72;4.65;;;;;;;20.04;100.00;94396.09;5074759;28;20098;-83
2023/06/27 02:39:15;;;;;;;7.22;4.93;;;;;;;19.93;100.00;94400.25;5075127;28;20039;-83
2023/06/27 02:41:41;;;;;;;7.35;4.60;;;;;;;19.98;100.00;94400.03;5075390;28;20433;-83
2023/06/27 02:44:06;;;;;;;6.20;4.25;;;;;;;19.92;100.00;94404.78;5058689;28;20093;-83
2023/06/27 02:46:32;;;;;;;10.73;4.00;;;;;;;20.02;100.00;94397.50;5075042;28;20033;-83
2023/06/27 02:48:57;;;;;;;6.88;4.03;;;;;;;20.07;100.00;94397.28;5074416;28;20237;-83
2023/06/27 02:51:23;;;;;;;6.47;4.30;;;;;;;20.10;100.00;94401.19;5058277;28;20020;-83
2023/06/27 02:53:48;;;;;;;7.40;3.92;;;;;;;20.26;100.00;94394.16;5075012;28;20123;-83
2023/06/27 02:56:18;;;;;;;8.98;4.20;;;;;;;20.36;100.00;94400.16;5076162;28;20040;-83
2023/06/27 02:58:43;;;;;;;6.78;4.30;;;;;;;20.44;100.00;94407.25;5075794;28;20021;-83
2023/06/27 03:01:08;;;;;;;6.55;4.15;;;;;;;20.67;100.00;94401.56;5074682;28;20117;-83
2023/06/27 03:03:34;;;;;;;7.05;4.57;;;;;;;20.65;100.00;94404.53;5092509;28;20380;-83
2023/06/27 03:06:06;;;;;;;8.10;4.43;;;;;;;20.83;100.00;94401.72;5066766;28;20029;-83
2023/06/27 03:08:32;;;;;;;7.88;4.15;;;;;;;20.70;100.00;94399.00;5086241;28;20124;-83
2023/06/27 03:10:57;;;;;;;8.05;4.03;;;;;;;20.52;100.00;94395.75;5093763;28;20023;-83
2023/06/27 03:13:23;;;;;;;6.70;4.15;;;;;;;20.42;100.00;94396.19;5078342;28;20326;-83
2023/06/27 03:15:48;;;;;;;6.82;4.53;;;;;;;20.51;100.00;94402.19;5074385;28;20024;-83
2023/06/27 03:18:14;;;;;;;7.88;4.32;;;;;;;20.36;100.00;94400.16;5074765;28;20032;-83
2023/06/27 03:20:39;;;;;;;10.32;4.53;;;;;;;20.13;100.00;94397.88;5073910;28;20028;-83
2023/06/27 03:23:04;;;;;;;5.50;3.95;;;;;;;20.37;100.00;94402.50;5074224;28;20039;-83
2023/06/27 03:25:30;;;;;;;11.20;4.50;;;;;;;20.27;100.00;94398.34;5073670;28;20093;-83
2023/06/27 03:27:55;;;;;;;9.75;4.60;;;;;;;20.18;100.00;94398.44;5056727;28;20085;-83
2023/06/27 03:30:21;;;;;;;11.93;4.43;;;;;;;19.88;100.00;94400.41;5057344;28;20059;-83
2023/06/27 03:32:46;;;;;;;6.28;4.32;;;;;;;19.86;100.00;94398.06;5075321;28;20051;-83
2023/06/27 03:35:12;;;;;;;11.82;4.97;;;;;;;19.89;100.00;94400.06;5075309;28;20027;-83
2023/06/27 03:37:37;;;;;;;5.78;4.20;;;;;;;19.76;100.00;94393.16;5056630;28;20031;-83
2023/06/27 03:40:04;;;;;;;7.47;4.20;;;;;;;19.87;100.00;94389.00;5074019;28;20024;-83
2023/06/27 03:42:30;;;;;;;7.70;4.35;;;;;;;19.87;100.00;94399.63;5074136;28;20029;-83
2023/06/27 03:44:55;;;;;;;7.78;3.83;;;;;;;19.95;100.00;94394.59;5074161;28;20344;-83
2023/06/27 03:47:23;;;;;;;10.13;4.00;;;;;;;20.16;100.00;94389.25;5073690;28;20024;-83
2023/06/27 03:49:48;;;;;;;7.10;4.25;;;;;;;20.23;100.00;94394.81;5057542;28;20148;-83
2023/06/27 03:52:13;;;;;;;7.57;4.43;;;;;;;20.20;100.00;94395.47;5074338;28;20147;-83
2023/06/27 03:54:39;;;;;;;7.18;4.25;;;;;;;20.12;100.00;94396.31;5057554;28;20425;-83
2023/06/27 03:57:04;;;;;;;7.82;4.43;;;;;;;20.01;100.00;94390.63;5073708;28;20020;-83
2023/06/27 03:59:30;;;;;;;5.47;3.90;;;;;;;20.15;100.00;94383.16;5073800;28;20021;-82
2023/06/27 04:01:55;;;;;;;6.00;4.07;;;;;;;20.17;100.00;94396.13;5073559;28;20029;-83
2023/06/27 04:04:21;;;;;;;7.78;4.40;;;;;;;20.25;100.00;94392.59;5074974;28;20507;-82
2023/06/27 04:06:46;;;;;;;6.00;4.20;;;;;;;20.17;100.00;94391.56;5088303;28;20028;-83
2023/06/27 04:09:12;;;;;;;5.80;4.25;;;;;;;20.11;100.00;94392.91;5094780;28;20027;-83
2023/06/27 04:11:37;;;;;;;6.75;4.60;;;;;;;20.09;100.00;94395.09;5077299;28;20026;-82
2023/06/27 04:14:03;;;;;;;6.13;4.32;;;;;;;20.18;100.00;94392.38;5094617;28;20444;-92
2023/06/27 04:16:28;;;;;;;5.65;3.97;;;;;;;20.20;100.00;94396.22;5079447;28;20053;-92
2023/06/27 04:18:54;;;;;;;6.68;4.30;;;;;;;20.16;100.00;94392.69;5079489;28;20020;-92
2023/06/27 04:21:22;;;;;;;7.20;4.18;;;;;;;20.18;100.00;94393.13;5079457;28;20024;-93
2023/06/27 04:23:47;;;;;;;6.78;4.20;;;;;;;20.43;100.00;94395.84;5078750;28;20024;-91
2023/06/27 04:26:15;;;;;;;8.18;4.00;;;;;;;20.73;100.00;94401.00;5079115;28;20401;-90
2023/06/27 04:28:46;;;;;;;7.95;4.38;;;;;;;20.88;100.00;94401.50;5078904;28;20055;-91
2023/06/27 04:31:12;;;;;;;5.25;3.80;;;;;;;20.64;100.00;94402.97;5079959;28;20016;-92
2023/06/27 04:33:39;;;;;;;7.68;4.78;;;;;;;20.77;100.00;94395.81;5079575;28;20035;-94
2023/06/27 04:39:27;;;;;;;6.15;4.60;;;;;;;20.65;100.00;94393.88;5096626;28;20556;-90
2023/06/27 04:41:52;;;;;;;5.60;3.85;;;;;;;20.62;100.00;94399.88;5095576;28;20115;-91
2023/06/27 04:44:20;;;;;;;9.00;4.40;;;;;;;20.83;100.00;94405.16;5079233;28;20031;-92
2023/06/27 04:46:46;;;;;;;6.13;4.43;;;;;;;20.55;100.00;94407.66;5079702;28;20073;-92
2023/06/27 04:49:11;;;;;;;7.03;4.35;;;;;;;20.42;100.00;94402.28;5096305;28;20024;-92
2023/06/27 04:51:37;;;;;;;10.23;4.30;;;;;;;20.27;100.00;94400.25;5083120;28;20024;-92
2023/06/27 04:54:02;;;;;;;6.10;4.45;;;;;;;20.14;100.00;94396.75;5082525;28;20028;-91
2023/06/27 04:56:28;;;;;;;7.75;4.60;;;;;;;19.84;100.00;94394.97;5081649;28;20031;-89
2023/06/27 04:58:53;;;;;;;9.07;4.78;;;;;;;19.99;100.00;94406.13;5080137;28;20066;-90
2023/06/27 05:01:18;;;;;;;6.68;4.40;;;;;;;20.10;100.00;94394.00;5079595;28;20020;-86
2023/06/27 05:03:44;;;;;;;5.47;4.00;;;;;;;20.09;100.00;94395.09;5076003;28;20025;-86
2023/06/27 05:06:09;;;;;;;7.93;4.22;;;;;;;20.30;100.00;94394.28;5075783;28;20170;-85
2023/06/27 05:08:36;;;;;;;7.05;4.13;;;;;;;20.47;100.00;94396.75;5075223;28;20055;-86
2023/06/27 05:11:01;;;;;;;11.93;5.30;;;;;;;20.31;100.00;94393.16;5058784;28;20119;-86
2023/06/27 05:13:27;;;;;;;9.13;4.50;;;;;;;20.47;100.00;94396.00;5060535;28;20109;-86
2023/06/27 05:15:52;;;;;;;10.35;4.80;;;;;;;20.28;100.00;94402.56;5096845;28;20024;-88
2023/06/27 05:18:17;;;;;;;8.27;4.50;;;;;;;20.55;100.00;94405.75;5095622;28;20028;-87
2023/06/27 05:20:44;;;;;;;10.40;5.22;;;;;;;20.75;100.00;94406.00;5095470;28;20364;-87
2023/06/27 05:23:09;;;;;;;7.53;4.57;;;;;;;20.83;100.00;94404.38;5078832;28;20035;-85
2023/06/27 05:25:35;;;;;;;8.45;4.60;;;;;;;20.92;100.00;94407.69;5066609;28;20031;-87
2023/06/27 05:28:01;;;;;;;6.90;4.70;;;;;;;20.85;100.00;94413.56;5086870;28;20034;-86
2023/06/27 05:30:27;;;;;;;7.50;4.38;;;;;;;20.76;100.00;94404.91;5076116;28;20357;-86
2023/06/27 05:32:52;;;;;;;25.00;6.88;;;;;;;21.25;100.00;94408.72;5087109;28;20024;-87
2023/06/27 05:35:18;;;;;;;6.97;3.90;;;;;;;21.53;100.00;94408.78;5079152;28;20039;-87
2023/06/27 05:37:43;;;;;;;7.75;4.68;;;;;;;21.88;100.00;94405.63;5095253;28;20059;-85
2023/06/27 05:40:09;;;;;;;8.25;4.07;;;;;;;22.15;100.00;94405.16;5095358;28;20024;-86
2023/06/27 05:42:35;;;;;;;6.93;4.43;;;;;;;22.11;100.00;94402.44;5078674;28;20337;-88
2023/06/27 05:45:02;;;;;;;8.60;4.45;;;;;;;22.08;100.00;94405.75;5075332;28;20024;-86
2023/06/27 05:47:27;;;;;;;9.85;4.28;;;;;;;21.90;100.00;94405.28;5074434;28;20107;-87
2023/06/27 05:49:53;;;;;;;7.93;4.47;;;;;;;21.50;100.00;94398.78;5075401;28;20028;-88
2023/06/27 05:52:18;;;;;;;6.93;4.88;;;;;;;21.95;100.00;94404.25;5082990;28;20028;-80
2023/06/27 05:54:43;;;;;;;7.10;4.15;;;;;;;22.09;100.00;94398.53;5077307;28;20062;-81
2023/06/27 05:57:09;;;;;;;11.85;4.43;;;;;;;22.43;100.00;94401.69;5076863;28;20028;-80
2023/06/27 05:59:35;;;;;;;11.77;5.93;;;;;;;22.39;100.00;94398.16;5075887;28;20024;-80
2023/06/27 06:02:00;;;;;;;12.57;4.68;;;;;;;22.55;100.00;94399.00;5076684;28;20074;-80
2023/06/27 06:04:26;;;;;;;9.10;4.90;;;;;;;23.13;100.00;94403.03;5075864;28;20044;-80
2023/06/27 06:06:51;;;;;;;8.48;4.53;;;;;;;23.12;100.00;94408.75;5080613;28;20111;-81
2023/06/27 06:09:16;;;;;;;114.80;23.95;;;;;;;22.90;100.00;94400.22;5078405;28;20032;-80
2023/06/27 06:11:42;;;;;;;69.07;14.73;;;;;;;22.27;100.00;94394.44;5075570;28;20021;-80
2023/06/27 06:14:07;;;;;;;7.95;4.78;;;;;;;22.37;100.00;94397.75;5075970;28;20024;-81
2023/06/27 06:16:33;;;;;;;18.60;7.00;;;;;;;22.35;100.00;94389.31;5074399;28;20021;-81
2023/06/27 06:18:59;;;;;;;6.30;4.43;;;;;;;22.58;100.00;94394.88;5073837;28;20025;-81
2023/06/27 06:21:26;;;;;;;7.18;4.55;;;;;;;22.94;100.00;94390.38;5093248;28;20382;-80
2023/06/27 06:23:51;;;;;;;7.20;4.10;;;;;;;22.92;100.00;94397.97;5094255;28;20051;-81
2023/06/27 06:26:16;;;;;;;6.47;4.30;;;;;;;23.53;100.00;94398.63;5092949;28;20107;-80
2023/06/27 06:28:42;;;;;;;8.90;4.50;;;;;;;23.94;100.00;94405.53;5057334;28;20024;-81
2023/06/27 06:31:10;;;;;;;9.82;4.38;;;;;;;23.54;100.00;94397.50;5075336;28;20081;-80
2023/06/27 06:33:37;;;;;;;7.32;4.20;;;;;;;23.91;100.00;94403.56;5058267;28;20028;-81
2023/06/27 06:36:05;;;;;;;10.00;4.47;;;;;;;23.32;100.00;94406.94;5075211;28;20119;-81
2023/06/27 06:38:30;;;;;;;7.13;4.55;;;;;;;23.24;100.00;94400.63;5078557;28;20034;-81
2023/06/27 06:40:55;;;;;;;5.85;4.00;;;;;;;23.53;100.00;94406.63;5095309;28;20437;-81
2023/06/27 06:43:25;;;;;;;7.18;3.83;;;;;;;23.57;100.00;94404.00;5094007;28;20028;-81
2023/06/27 06:45:50;;;;;;;9.57;4.93;;;;;;;23.91;100.00;94401.66;5094150;28;20089;-81
2023/06/27 06:48:16;;;;;;;29.58;9.80;;;;;;;23.38;100.00;94404.75;5093609;28;20028;-81
2023/06/27 06:50:41;;;;;;;20.00;5.93;;;;;;;23.67;100.00;94400.78;5093897;28;20039;-81
2023/06/27 06:53:07;;;;;;;8.35;5.00;;;;;;;23.72;100.00;94399.75;5093834;28;20035;-81
2023/06/27 06:55:34;;;;;;;5.78;4.28;;;;;;;23.78;100.00;94398.34;5094513;28;20063;-81
2023/06/27 06:57:59;;;;;;;7.60;4.32;;;;;;;23.90;100.00;94400.13;5094512;28;20111;-81
2023/06/27 07:00:25;;;;;;;7.80;4.60;;;;;;;24.05;100.00;94403.09;5093709;28;20115;-81
2023/06/27 07:02:50;;;;;;;31.45;8.75;;;;;;;24.17;100.00;94391.47;5093867;28;20032;-81
2023/06/27 07:05:16;;;;;;;23.73;7.57;;;;;;;24.17;100.00;94402.16;5077052;28;20024;-81
2023/06/27 07:07:41;;;;;;;10.27;5.20;;;;;;;24.33;100.00;94386.03;5093099;28;20442;-81
2023/06/27 07:10:07;;;;;;;11.98;4.60;;;;;;;24.59;100.00;94393.38;5094785;28;20019;-82
2023/06/27 07:12:32;;;;;;;6.78;4.30;;;;;;;25.03;100.00;94394.84;5094310;28;20024;-81
2023/06/27 07:14:58;;;;;;;7.05;4.45;;;;;;;25.07;100.00;94395.69;5094925;28;20036;-81
2023/06/27 07:17:23;;;;;;;6.75;4.40;;;;;;;24.88;100.00;94390.41;5076094;28;20027;-82
2023/06/27 07:19:49;;;;;;;7.88;4.55;;;;;;;24.87;100.00;94383.50;5076746;28;20427;-81
2023/06/27 07:22:14;;;;;;;8.50;4.72;;;;;;;24.79;100.00;94388.75;5094526;28;20027;-82
2023/06/27 07:24:40;;;;;;;10.48;4.70;;;;;;;25.11;100.00;94387.72;5076632;28;20016;-82
2023/06/27 07:27:06;;;;;;;7.65;4.30;;;;;;;24.99;100.00;94386.78;5076172;28;20023;-82
2023/06/27 07:29:32;;;;;;;6.65;4.13;;;;;;;25.06;100.00;94383.44;5076528;28;20031;-82
2023/06/27 07:31:57;;;;;;;5.80;3.85;;;;;;;25.01;100.00;94382.97;5093195;28;20439;-82
2023/06/27 07:34:22;;;;;;;7.00;4.43;;;;;;;25.20;100.00;94390.13;5094819;28;20114;-82
2023/06/27 07:36:48;;;;;;;6.15;3.97;;;;;;;25.32;100.00;94384.56;5075466;28;20028;-81
2023/06/27 07:39:14;;;;;;;5.40;4.32;;;;;;;25.70;100.00;94390.06;5093285;28;20035;-82
2023/06/27 07:41:39;;;;;;;8.65;4.38;;;;;;;25.71;100.00;94385.47;5093035;28;20448;-82
2023/06/27 07:44:04;;;;;;;4.93;3.88;;;;;;;25.54;100.00;94387.56;5076336;28;20075;-81
2023/06/27 07:46:30;;;;;;;5.20;3.90;;;;;;;25.49;100.00;94380.59;5093040;28;20031;-82
2023/06/27 07:48:59;;;;;;;7.82;4.40;;;;;;;25.75;100.00;94386.28;5093706;28;20464;-82
2023/06/27 07:51:27;;;;;;;6.13;4.00;;;;;;;25.67;100.00;94378.16;5075798;28;20063;-81
2023/06/27 07:53:54;;;;;;;6.65;4.10;;;;;;;26.02;100.00;94378.16;5092398;28;20024;-82
2023/06/27 07:56:20;;;;;;;11.35;4.25;;;;;;;25.81;100.00;94380.22;5092835;28;20048;-81
2023/06/27 07:58:45;;;;;;;8.18;4.60;;;;;;;25.93;100.00;94375.78;5093487;28;20067;-81
2023/06/27 08:01:11;;;;;;;5.03;3.55;;;;;;;26.24;100.00;94379.97;5092836;28;20101;-81
2023/06/27 08:03:37;;;;;;;5.78;4.50;;;;;;;26.25;100.00;94378.84;5092703;28;20032;-80
2023/06/27 08:06:05;;;;;;;8.32;4.00;;;;;;;26.34;100.00;94383.16;5092704;28;20432;-80
2023/06/27 08:08:31;;;;;;;7.18;4.80;;;;;;;26.34;100.00;94380.47;5075599;28;20039;-81
2023/06/27 08:10:56;;;;;;;7.50;4.43;;;;;;;26.43;100.00;94382.84;5092619;28;20083;-81
2023/06/27 08:13:25;;;;;;;6.90;4.20;;;;;;;26.63;100.00;94375.38;5075943;28;20025;-81
2023/06/27 08:15:51;;;;;;;5.35;4.03;;;;;;;26.66;100.00;94371.94;5092578;28;20028;-81
2023/06/27 08:18:16;;;;;;;5.82;3.80;;;;;;;26.60;100.00;94362.66;5075495;28;20020;-82
2023/06/27 08:20:42;;;;;;;5.40;4.10;;;;;;;26.80;100.00;94369.38;5092396;28;20028;-81
2023/06/27 08:23:07;;;;;;;5.43;3.53;;;;;;;26.71;100.00;94370.81;5092874;28;20036;-81
2023/06/27 08:25:33;;;;;;;5.38;4.00;;;;;;;27.39;100.00;94367.84;5080040;28;20397;-82
2023/06/27 08:27:59;;;;;;;9.75;3.65;;;;;;;27.75;100.00;94370.75;5096240;28;20032;-82
2023/06/27 08:30:26;;;;;;;8.07;3.92;;;;;;;27.92;90.41;94365.81;5096605;28;20028;-82
2023/06/27 08:32:53;;;;;;;8.13;4.00;;;;;;;27.65;100.00;94368.78;5080055;28;20034;-81
2023/06/27 08:35:18;;;;;;;7.68;3.78;;;;;;;28.06;93.71;94373.94;5096838;28;20044;-81
2023/06/27 08:37:43;;;;;;;7.10;3.83;;;;;;;27.86;86.51;94370.03;5096021;28;20055;-81
2023/06/27 08:40:09;;;;;;;5.38;3.80;;;;;;;27.65;90.04;94366.88;5096698;28;20039;-81
2023/06/27 08:42:35;;;;;;;9.75;3.80;;;;;;;27.93;100.00;94367.34;5096091;28;20547;-80
2023/06/27 08:45:01;;;;;;;5.18;4.18;;;;;;;27.52;100.00;94369.09;5096189;28;20082;-82
2023/06/27 08:47:29;;;;;;;6.70;4.25;;;;;;;28.02;100.00;94369.69;5095947;28;20055;-82
2023/06/27 08:50:03;;;;;;;11.02;4.05;;;;;;;28.23;100.00;94374.41;5096064;28;20039;-82
2023/06/27 08:52:38;;;;;;;6.90;3.70;;;;;;;28.21;100.00;94366.72;5079598;28;20028;-82
2023/06/27 08:55:04;;;;;;;4.38;3.60;;;;;;;28.60;100.00;94370.63;5079586;28;20387;-82
2023/06/27 08:57:32;;;;;;;5.07;3.70;;;;;;;28.75;100.00;94370.63;5078676;28;20096;-82
2023/06/27 09:00:04;;;;;;;8.93;4.05;;;;;;;28.90;100.00;94366.81;5079427;28;20349;-81
2023/06/27 09:02:29;;;;;;;5.27;3.73;;;;;;;28.62;100.00;94365.63;5096276;28;20036;-82
2023/06/27 09:04:55;;;;;;;5.45;3.85;;;;;;;28.01;100.00;94370.84;5079292;28;20078;-82
2023/06/27 09:07:20;;;;;;;8.75;4.00;;;;;;;28.09;100.00;94373.19;5078855;28;20032;-82
2023/06/27 09:09:47;;;;;;;5.20;3.90;;;;;;;28.20;100.00;94367.88;5095945;28;20460;-82
2023/06/27 09:12:12;;;;;;;6.57;4.07;;;;;;;28.57;100.00;94376.78;5079929;28;20042;-83
2023/06/27 09:14:38;;;;;;;6.13;4.03;;;;;;;28.58;100.00;94378.31;5080341;28;20452;-82
2023/06/27 09:17:05;;;;;;;7.03;4.20;;;;;;;28.17;100.00;94379.38;5096584;28;20085;-82
2023/06/27 09:19:31;;;;;;;6.25;3.90;;;;;;;28.57;100.00;94379.47;5097009;28;20032;-82
2023/06/27 09:21:57;;;;;;;8.38;4.13;;;;;;;28.62;100.00;94375.59;5096337;28;20040;-83
2023/06/27 09:24:22;;;;;;;5.07;4.10;;;;;;;28.99;99.62;94369.09;5084976;28;20047;-83
2023/06/27 09:26:48;;;;;;;8.40;4.13;;;;;;;29.05;96.91;94374.88;5091295;28;20043;-82
2023/06/27 09:29:14;;;;;;;7.90;4.10;;;;;;;29.06;97.92;94373.72;5065736;28;20808;-82
2023/06/27 09:31:40;;;;;;;9.30;4.20;;;;;;;29.21;96.21;94364.47;5076408;28;20029;-83
2023/06/27 09:34:12;;;;;;;9.50;3.97;;;;;;;29.10;91.86;94366.38;5077614;28;20111;-83
2023/06/27 09:36:41;;;;;;;5.75;4.00;;;;;;;28.85;87.58;94363.72;5075292;28;20032;-82
2023/06/27 09:39:10;;;;;;;11.25;4.47;;;;;;;28.61;82.91;94376.75;5077656;28;20060;-82
2023/06/27 09:41:49;;;;;;;10.10;4.07;;;;;;;28.57;91.73;94379.47;5076285;28;20433;-82
2023/06/27 09:44:21;;;;;;;6.88;4.00;;;;;;;28.92;91.41;94369.88;5076225;28;20090;-82
2023/06/27 09:46:48;;;;;;;5.28;3.60;;;;;;;29.12;89.30;94371.41;5059104;28;20039;-82
2023/06/27 09:49:14;;;;;;;7.50;4.13;;;;;;;28.79;96.96;94361.38;5076036;28;20032;-82
2023/06/27 09:51:40;;;;;;;10.45;4.68;;;;;;;28.63;92.09;94366.41;5076075;28;20035;-82
2023/06/27 09:54:06;;;;;;;8.05;3.85;;;;;;;28.96;90.77;94369.88;5059542;28;20032;-82
2023/06/27 09:56:32;;;;;;;7.95;4.63;;;;;;;28.70;100.00;94369.09;5076260;28;20028;-82
2023/06/27 09:59:11;;;;;;;8.68;4.40;;;;;;;28.45;97.35;94363.69;5059176;28;20233;-82
2023/06/27 10:01:37;;;;;;;8.18;4.72;;;;;;;28.67;99.19;94364.47;5075770;28;20035;-82
2023/06/27 10:04:03;;;;;;;11.70;4.38;;;;;;;28.84;100.00;94362.97;5059480;28;20031;-83
2023/06/27 10:06:29;;;;;;;5.40;3.80;;;;;;;29.31;92.31;94365.59;5076163;28;20092;-82
2023/06/27 10:08:56;;;;;;;7.43;3.92;;;;;;;29.27;94.30;94367.53;5075555;28;20364;-82
2023/06/27 10:11:22;;;;;;;5.45;4.40;;;;;;;29.08;97.65;94359.88;5059023;28;20055;-82
2023/06/27 10:13:48;;;;;;;7.18;4.32;;;;;;;28.75;96.28;94359.84;5075889;28;20037;-82
2023/06/27 10:16:13;;;;;;;6.32;4.70;;;;;;;28.29;100.00;94356.72;5075723;28;20036;-82
2023/06/27 10:18:38;;;;;;;10.23;4.53;;;;;;;28.47;100.00;94355.97;5075350;28;20032;-82
2023/06/27 10:21:04;;;;;;;10.50;4.70;;;;;;;28.66;91.93;94352.16;5075613;28;20028;-82
2023/06/27 10:23:31;;;;;;;10.35;4.80;;;;;;;28.72;97.64;94347.91;5076792;28;20025;-82
2023/06/27 10:25:57;;;;;;;8.27;4.30;;;;;;;29.06;96.90;94354.84;5075612;28;20029;-82
2023/06/27 10:28:23;;;;;;;6.30;4.43;;;;;;;29.49;88.22;94351.34;5057998;28;20036;-83
2023/06/27 10:30:49;;;;;;;9.82;4.70;;;;;;;29.13;99.74;94344.06;5075465;28;20032;-82
2023/06/27 10:33:31;;;;;;;5.47;4.28;;;;;;;29.60;85.45;94345.91;5076725;28;20692;-83
2023/06/27 10:36:05;;;;;;;5.85;4.35;;;;;;;30.05;83.05;94353.44;5075573;28;20029;-83
2023/06/27 10:38:38;;;;;;;9.85;4.50;;;;;;;30.50;81.79;94341.97;5074994;28;20060;-83
2023/06/27 10:41:06;;;;;;;6.50;4.68;;;;;;;30.41;89.34;94338.94;5058723;28;20032;-83
2023/06/27 10:43:47;;;;;;;6.72;4.28;;;;;;;30.12;86.54;94336.41;5076441;28;20388;-83
2023/06/27 10:46:29;;;;;;;8.02;4.20;;;;;;;29.70;80.51;94339.69;5075155;28;20155;-82
2023/06/27 10:48:58;;;;;;;5.97;3.60;;;;;;;30.16;79.08;94346.03;5058985;28;20429;-83
2023/06/27 10:51:33;;;;;;;7.95;4.40;;;;;;;30.23;73.38;94336.38;5058401;28;20408;-82
2023/06/27 10:54:08;;;;;;;5.45;4.13;;;;;;;29.91;73.07;94340.75;5075411;28;20555;-83
2023/06/27 10:56:35;;;;;;;6.18;3.45;;;;;;;30.65;71.11;94333.78;5076175;28;20029;-83
2023/06/27 10:59:03;;;;;;;5.18;3.42;;;;;;;31.21;70.10;94325.59;5074497;28;20688;-83
2023/06/27 11:01:30;;;;;;;8.43;4.10;;;;;;;31.36;68.12;94328.91;5075934;28;20036;-83
2023/06/27 11:03:58;;;;;;;4.78;3.80;;;;;;;31.27;63.97;94320.50;5074844;28;20035;-83
2023/06/27 11:06:39;;;;;;;5.63;3.63;;;;;;;30.73;60.13;94314.41;5076162;28;20111;-83
2023/06/27 11:09:05;;;;;;;5.93;3.95;;;;;;;30.28;57.79;94317.03;5058226;28;20031;-83
2023/06/27 11:11:31;;;;;;;4.43;3.65;;;;;;;31.29;59.73;94310.81;5074599;28;20401;-83
2023/06/27 11:14:07;;;;;;;6.10;3.80;;;;;;;31.71;59.55;94315.38;5058450;28;20031;-83
2023/06/27 11:16:36;;;;;;;5.70;4.07;;;;;;;31.61;59.08;94311.63;5075908;28;20433;-83
2023/06/27 11:19:02;;;;;;;8.98;3.80;;;;;;;31.57;62.84;94302.78;5075639;28;20035;-83
2023/06/27 11:21:29;;;;;;;7.53;3.80;;;;;;;32.07;64.39;94290.56;5058000;28;20036;-83
2023/06/27 11:23:58;;;;;;;8.43;4.28;;;;;;;32.43;62.36;94292.00;5074590;28;20028;-83
2023/06/27 11:26:24;;;;;;;6.15;4.47;;;;;;;31.70;68.24;94298.34;5074521;28;20111;-83